»·PEaware :: DCM425 KBUR-7S6

DCM425 :: KBUR-7S6

FLIGHT INFORMATION

Flight Status: Arrived
Operator: DotCom
More flights by this operator :: More flights under this callsign
Pilot: Tyler J. (19619)
Aircraft: CESSNA 560 CITATION 5
(C560)
More flights by this aircraft type
Origin: KBUR Bob Hope-Burbank
United States
Destination: 7S6 White Sulphur Springs
United States
More flights between these airports :: More routes between these airports
Route: +OROSZ2 CSTRO REBRG J7 LKT
File this flight plan on PilotEdge
Remarks:
Altitude:
(Current/Filed)
35,000ft
Speed:
(Current/Filed)
450kts
Departed: 13-Jan-20 09:39 PM
Arrived: 14-Jan-20 12:07 AM
Distance/Time
Traveled:
812nm/2:27
Distance/Time
To Go:
Arrived

Flight Plot

Page will automatically refresh every two minutes.

Flight plan parsing failed; only flown route is shown


Map Options




Map Legend


Flown Route
Filed Route
Departure Airport
Arrival Airport
Navaid (VOR, NDB)
Fix

Horizontal Profiles

Position Reports

Time Latitude Longitude Heading Altitude Ground
Speed
13-Jan-20 21:24 34.200112 -118.364900 277 781ft 0kts
13-Jan-20 21:25 34.200112 -118.364903 277 781ft 0kts
13-Jan-20 21:26 34.200112 -118.364906 277 781ft 0kts
13-Jan-20 21:27 34.199866 -118.365558 219 782ft 9kts
13-Jan-20 21:28 34.199752 -118.365606 181 781ft 0kts
13-Jan-20 21:29 34.199704 -118.365606 178 781ft 0kts
13-Jan-20 21:30 34.199702 -118.365606 178 781ft 0kts
13-Jan-20 21:31 34.199699 -118.365606 178 781ft 0kts
13-Jan-20 21:32 34.199697 -118.365606 178 782ft 0kts
13-Jan-20 21:33 34.199054 -118.367851 270 782ft 8kts
13-Jan-20 21:34 34.198658 -118.368927 180 782ft 0kts
13-Jan-20 21:35 34.198655 -118.368927 180 782ft 0kts
13-Jan-20 21:36 34.198551 -118.368927 180 782ft 2kts
13-Jan-20 21:37 34.198199 -118.368926 174 782ft 9kts
13-Jan-20 21:38 34.197015 -118.343189 105 1210ft 174kts
13-Jan-20 21:39 34.152487 -118.355455 223 4010ft 220kts
13-Jan-20 21:40 34.112161 -118.410888 261 4749ft 227kts
13-Jan-20 21:41 34.155481 -118.455446 343 7940ft 240kts
13-Jan-20 21:42 34.214720 -118.496180 324 10393ft 243kts
13-Jan-20 21:43 34.275526 -118.534630 346 14603ft 260kts
13-Jan-20 21:44 34.334024 -118.580021 305 17632ft 283kts
13-Jan-20 21:45 34.390939 -118.653006 325 20506ft 311kts
13-Jan-20 21:46 34.476697 -118.684281 344 22995ft 336kts
13-Jan-20 21:47 34.574817 -118.703789 346 23484ft 372kts
13-Jan-20 21:48 34.660376 -118.719850 345 26126ft 366kts
13-Jan-20 21:49 34.738362 -118.748493 331 27787ft 368kts
13-Jan-20 21:50 34.822002 -118.801642 327 29549ft 375kts
13-Jan-20 21:51 34.913941 -118.864567 326 31092ft 381kts
13-Jan-20 21:52 35.002775 -118.925661 325 33541ft 357kts
13-Jan-20 21:53 35.087781 -118.984512 324 35120ft 354kts
13-Jan-20 21:54 35.175582 -119.045593 324 35234ft 370kts
13-Jan-20 21:55 35.264992 -119.107617 324 35256ft 368kts
13-Jan-20 21:56 35.353832 -119.169437 325 35263ft 367kts
13-Jan-20 21:57 35.442607 -119.231510 324 35265ft 367kts
13-Jan-20 21:58 35.531254 -119.293985 324 35268ft 367kts
13-Jan-20 21:59 35.619589 -119.356525 324 35268ft 366kts
13-Jan-20 22:00 35.707656 -119.419077 324 35269ft 366kts
13-Jan-20 22:01 35.795854 -119.481899 324 35275ft 366kts
13-Jan-20 22:02 35.883982 -119.544846 324 35277ft 365kts
13-Jan-20 22:03 35.974215 -119.602448 338 35281ft 376kts
13-Jan-20 22:04 36.080497 -119.613214 351 35285ft 388kts
13-Jan-20 22:05 36.188795 -119.611825 352 35288ft 389kts
13-Jan-20 22:06 36.295748 -119.609506 352 35288ft 379kts
13-Jan-20 22:07 36.401408 -119.607696 351 35288ft 380kts
13-Jan-20 22:08 36.506839 -119.605982 351 35287ft 380kts
13-Jan-20 22:09 36.612733 -119.604192 351 35286ft 380kts
13-Jan-20 22:10 36.718292 -119.602370 351 35286ft 379kts
13-Jan-20 22:11 36.824021 -119.600528 351 35287ft 379kts
13-Jan-20 22:12 36.929367 -119.598675 351 35285ft 378kts
13-Jan-20 22:13 37.034700 -119.596802 350 35277ft 378kts
13-Jan-20 22:14 37.139451 -119.596754 349 35265ft 376kts
13-Jan-20 22:15 37.243748 -119.599047 348 35252ft 374kts
13-Jan-20 22:16 37.348081 -119.601581 348 35233ft 373kts
13-Jan-20 22:17 37.451842 -119.604118 348 35214ft 373kts
13-Jan-20 22:18 37.555583 -119.606663 348 35209ft 372kts
13-Jan-20 22:19 37.658995 -119.609203 348 35192ft 372kts
13-Jan-20 22:20 37.762715 -119.611744 348 35191ft 371kts
13-Jan-20 22:21 37.859480 -119.614127 347 35192ft 371kts
13-Jan-20 22:22 37.962514 -119.616667 347 35193ft 371kts
13-Jan-20 22:23 38.065477 -119.619215 347 35180ft 371kts
13-Jan-20 22:24 38.164895 -119.621685 347 35165ft 370kts
13-Jan-20 22:25 38.268042 -119.624267 347 35162ft 370kts
13-Jan-20 22:26 38.371060 -119.626845 347 35161ft 370kts
13-Jan-20 22:27 38.474048 -119.629403 347 35155ft 370kts
13-Jan-20 22:28 38.577150 -119.631940 347 35148ft 370kts
13-Jan-20 22:29 38.680325 -119.634468 347 35141ft 371kts
13-Jan-20 22:30 38.783484 -119.637129 347 35135ft 370kts
13-Jan-20 22:31 38.886463 -119.639783 347 35132ft 370kts
13-Jan-20 22:32 38.989205 -119.642411 347 35128ft 370kts
13-Jan-20 22:33 39.092317 -119.645042 347 35116ft 370kts
13-Jan-20 22:34 39.195155 -119.647661 347 35101ft 370kts
13-Jan-20 22:35 39.298070 -119.650271 347 35104ft 369kts
13-Jan-20 22:36 39.400921 -119.652882 347 35119ft 369kts
13-Jan-20 22:37 39.503813 -119.654118 354 35127ft 378kts
13-Jan-20 22:38 39.608385 -119.613623 9 35130ft 400kts
13-Jan-20 22:39 39.711231 -119.557244 11 35132ft 403kts
13-Jan-20 22:40 39.814070 -119.499230 11 35134ft 403kts
13-Jan-20 22:41 39.917214 -119.441028 11 35136ft 403kts
13-Jan-20 22:42 40.019959 -119.383035 11 35137ft 403kts
13-Jan-20 22:43 40.123030 -119.324746 11 35136ft 404kts
13-Jan-20 22:44 40.226350 -119.266127 11 35137ft 405kts
13-Jan-20 22:45 40.330178 -119.206999 11 35136ft 406kts
13-Jan-20 22:46 40.433924 -119.147704 12 35131ft 407kts
13-Jan-20 22:47 40.537924 -119.087970 12 35130ft 408kts
13-Jan-20 22:48 40.642141 -119.028177 12 35128ft 409kts
13-Jan-20 22:49 40.746443 -118.968175 12 35126ft 410kts
13-Jan-20 22:50 40.850945 -118.907772 12 35124ft 411kts
13-Jan-20 22:51 40.955999 -118.846780 13 35116ft 411kts
13-Jan-20 22:52 41.060779 -118.785713 13 35109ft 412kts
13-Jan-20 22:53 41.165766 -118.724306 13 35097ft 412kts
13-Jan-20 22:54 41.270886 -118.662595 13 35096ft 413kts
13-Jan-20 22:55 41.376086 -118.600625 13 35092ft 413kts
13-Jan-20 22:56 41.481064 -118.538576 14 35085ft 414kts
13-Jan-20 22:57 41.586668 -118.475919 14 35079ft 415kts
13-Jan-20 22:59 41.692372 -118.412973 14 35064ft 416kts
13-Jan-20 23:00 41.798162 -118.349746 14 35052ft 416kts
13-Jan-20 23:01 41.904039 -118.286240 15 35041ft 417kts
13-Jan-20 23:02 42.009899 -118.222497 15 35030ft 417kts
13-Jan-20 23:03 42.115903 -118.158429 15 35020ft 418kts
13-Jan-20 23:04 42.222184 -118.093947 15 35011ft 418kts
13-Jan-20 23:05 42.328166 -118.029397 15 35005ft 418kts
13-Jan-20 23:06 42.434002 -117.964675 15 35001ft 418kts
13-Jan-20 23:07 42.540407 -117.899295 15 34999ft 419kts
13-Jan-20 23:08 42.633827 -117.798581 40 34999ft 445kts
13-Jan-20 23:09 42.712598 -117.667580 44 34999ft 449kts
13-Jan-20 23:10 42.789568 -117.533515 45 35001ft 449kts
13-Jan-20 23:11 42.866413 -117.399931 45 35004ft 449kts
13-Jan-20 23:12 42.943745 -117.265802 45 35008ft 449kts
13-Jan-20 23:13 43.020946 -117.131743 45 35012ft 448kts
13-Jan-20 23:14 43.097838 -116.997812 45 35018ft 449kts
13-Jan-20 23:15 43.174756 -116.863282 46 35025ft 448kts
13-Jan-20 23:16 43.251594 -116.728291 46 35026ft 448kts
13-Jan-20 23:17 43.328000 -116.593436 46 35028ft 448kts
13-Jan-20 23:18 43.404483 -116.457779 46 35026ft 448kts
13-Jan-20 23:18 43.467783 -116.344972 47 35024ft 448kts
13-Jan-20 23:20 43.557853 -116.188459 42 35019ft 444kts
13-Jan-20 23:21 43.643295 -116.066013 39 35017ft 442kts
13-Jan-20 23:21 43.715747 -115.965814 39 35012ft 442kts
13-Jan-20 23:23 43.816874 -115.825381 40 34979ft 442kts
13-Jan-20 23:23 43.888946 -115.724570 40 34950ft 442kts
13-Jan-20 23:25 43.989746 -115.582706 40 34916ft 442kts
13-Jan-20 23:25 44.061771 -115.480819 40 34895ft 443kts
13-Jan-20 23:26 44.147860 -115.358497 40 34875ft 443kts
13-Jan-20 23:28 44.248267 -115.215112 40 34857ft 443kts
13-Jan-20 23:28 44.319956 -115.112266 41 34854ft 443kts
13-Jan-20 23:29 44.405909 -114.988446 41 34853ft 443kts
13-Jan-20 23:30 44.491640 -114.864383 41 34854ft 443kts
13-Jan-20 23:31 44.577216 -114.739983 41 34851ft 444kts
13-Jan-20 23:32 44.662749 -114.615064 41 34851ft 444kts
13-Jan-20 23:33 44.748246 -114.489618 41 34852ft 444kts
13-Jan-20 23:34 44.833376 -114.364097 41 34854ft 444kts
13-Jan-20 23:35 44.918779 -114.237540 42 34859ft 444kts
13-Jan-20 23:36 45.003257 -114.110712 44 34867ft 446kts
13-Jan-20 23:37 45.078580 -113.970268 51 34868ft 449kts
13-Jan-20 23:38 45.149656 -113.824978 52 34868ft 448kts
13-Jan-20 23:39 45.220101 -113.679179 52 34866ft 448kts
13-Jan-20 23:40 45.290509 -113.532972 52 34852ft 448kts
13-Jan-20 23:41 45.360675 -113.386751 52 34832ft 448kts
13-Jan-20 23:42 45.430853 -113.239860 52 34812ft 448kts
13-Jan-20 23:43 45.500010 -113.094255 52 35192ft 420kts
13-Jan-20 23:44 45.564088 -112.958130 52 32934ft 403kts
13-Jan-20 23:45 45.625346 -112.827654 52 30540ft 391kts
13-Jan-20 23:46 45.686024 -112.698216 52 28140ft 397kts
13-Jan-20 23:47 45.747690 -112.566075 52 25750ft 401kts
13-Jan-20 23:48 45.806495 -112.431396 62 23353ft 398kts
13-Jan-20 23:49 45.845493 -112.283850 68 20958ft 391kts
13-Jan-20 23:50 45.880959 -112.140729 68 18560ft 372kts
13-Jan-20 23:51 45.914612 -112.007942 68 16159ft 336kts
13-Jan-20 23:52 45.946698 -111.884933 68 13755ft 322kts
13-Jan-20 23:53 45.978582 -111.767184 68 11358ft 305kts
13-Jan-20 23:54 46.011807 -111.660419 53 10032ft 286kts
13-Jan-20 23:55 46.063178 -111.574300 47 8651ft 279kts
13-Jan-20 23:56 46.112827 -111.495414 47 8020ft 257kts
13-Jan-20 23:57 46.162139 -111.422199 43 7486ft 245kts
13-Jan-20 23:58 46.216482 -111.348343 44 8164ft 289kts
13-Jan-20 23:59 46.269388 -111.274323 42 7141ft 246kts
14-Jan-20 00:00 46.311282 -111.206448 49 6919ft 223kts
14-Jan-20 00:01 46.341411 -111.128210 62 7353ft 224kts
14-Jan-20 00:02 46.373568 -111.050031 47 7495ft 227kts
14-Jan-20 00:03 46.412447 -110.996786 45 6975ft 168kts
14-Jan-20 00:04 46.447459 -110.954393 32 6207ft 161kts
14-Jan-20 00:05 46.487002 -110.925245 24 5334ft 151kts
14-Jan-20 00:06 46.509837 -110.909205 23 5065ft 27kts
14-Jan-20 00:07 46.510663 -110.907645 84 5065ft 0kts

Navigation Log

Ident Type
Flight plan parsing failed, navigation log unavailable